Airfield :











YOU CAN JOIN US ON...

 
LOGIN :

Register | Disclaimer

   EN    FR    IT 

 









Legend :    VFR   Marginal VFR   IFR   Intensive IFR   Very Intensive IFR
Visi :
Ceiling :
>= 8 km
>= 3000ft
5 to 8 km
1000 to 3000 ft
1500m to 5 km
500 to 1000 ft
800 to 1500m
200 to 500 ft
< 800m
< 200 ft
Symbols :   Thunderstorms  Fog  Heavy snow  Heavy precipitations  Wind > 20 kt







- Airport Elevation : 209 ft
- IATA code : TFS


GCTS - Tenerife South

CURRENT METAR :
  • 271230Z 11012KT 070V130 9999 BKN040 24/15 Q1020 NOSIG

EXPIRED METARs :
  • 271200Z 09014KT 060V120 9999 BKN040 24/15 Q1020 NOSIG
  • 271130Z 10013KT 070V130 9999 BKN040 24/16 Q1020 NOSIG
  • 271100Z 11013KT 080V140 9999 BKN040 24/16 Q1020 NOSIG
  • 271030Z 10013KT 9999 BKN040 23/17 Q1020 NOSIG
  • 271000Z 11011KT 9999 BKN040 23/16 Q1020 NOSIG

TAF TAF GCTS
Valid from the 27 at 09:00 until the 28 at 09:00 UTC


270800Z 2709/2809 10016KT 9999 SCT035 TX25/2714Z TN19/2806Z
TEMPO 2709/2711 04006KT
BECMG 2719/2722 03007KT
GCCC FIR / Europe



MET'MAP, your aeronautical weather chart ! - Copyright ORBIFLY December 2007 - Disclaimer

ORBIFLY MET'MAP TEAM :

Programming & Development : Alexandra Zaïnal
Concept & Development : Baudouin d'Aumeries
Co-Development & Prog : Marc-Olivier Méhu
Technical & hardware support : Manuel Goepfert

Contact : metmap@orbifly.com




SOURCES & CREDITS :

   NOAA       Earth
Advisory